sensor_id;sensor_type;location;lat;lon;timestamp;temperature;humidity
12426;DHT22;6277;49.824;9.562;2023-05-07T00:00:19;17.10;56.90
12426;DHT22;6277;49.824;9.562;2023-05-07T00:02:45;17.10;56.90
12426;DHT22;6277;49.824;9.562;2023-05-07T00:05:11;17.20;57.00
12426;DHT22;6277;49.824;9.562;2023-05-07T00:07:37;17.20;57.00
12426;DHT22;6277;49.824;9.562;2023-05-07T00:10:03;17.20;57.00
12426;DHT22;6277;49.824;9.562;2023-05-07T00:12:29;17.20;57.10
12426;DHT22;6277;49.824;9.562;2023-05-07T00:15:00;17.20;57.00
12426;DHT22;6277;49.824;9.562;2023-05-07T00:17:25;17.20;57.00
12426;DHT22;6277;49.824;9.562;2023-05-07T00:19:51;17.20;57.00
12426;DHT22;6277;49.824;9.562;2023-05-07T00:22:16;17.20;57.00
12426;DHT22;6277;49.824;9.562;2023-05-07T00:24:42;17.30;57.00
12426;DHT22;6277;49.824;9.562;2023-05-07T00:27:08;17.30;57.10
12426;DHT22;6277;49.824;9.562;2023-05-07T00:29:33;17.30;57.10
12426;DHT22;6277;49.824;9.562;2023-05-07T00:31:59;17.30;57.00
12426;DHT22;6277;49.824;9.562;2023-05-07T00:34:25;17.30;57.10
12426;DHT22;6277;49.824;9.562;2023-05-07T00:36:50;17.40;57.10
12426;DHT22;6277;49.824;9.562;2023-05-07T00:39:16;17.30;57.10
12426;DHT22;6277;49.824;9.562;2023-05-07T00:41:41;17.40;57.10
12426;DHT22;6277;49.824;9.562;2023-05-07T00:44:07;17.40;57.20
12426;DHT22;6277;49.824;9.562;2023-05-07T00:46:32;17.40;57.20
12426;DHT22;6277;49.824;9.562;2023-05-07T00:48:59;17.40;57.20
12426;DHT22;6277;49.824;9.562;2023-05-07T00:51:26;17.40;57.30
12426;DHT22;6277;49.824;9.562;2023-05-07T00:53:53;17.50;57.30
12426;DHT22;6277;49.824;9.562;2023-05-07T00:56:22;17.40;57.30
12426;DHT22;6277;49.824;9.562;2023-05-07T00:58:49;17.40;57.30
12426;DHT22;6277;49.824;9.562;2023-05-07T01:01:15;17.50;57.20
12426;DHT22;6277;49.824;9.562;2023-05-07T01:03:43;17.50;57.20
12426;DHT22;6277;49.824;9.562;2023-05-07T01:06:10;17.50;57.20
12426;DHT22;6277;49.824;9.562;2023-05-07T01:08:39;17.50;57.20
12426;DHT22;6277;49.824;9.562;2023-05-07T01:11:06;17.50;57.20
12426;DHT22;6277;49.824;9.562;2023-05-07T01:13:32;17.40;57.20
12426;DHT22;6277;49.824;9.562;2023-05-07T01:15:58;17.40;57.20
12426;DHT22;6277;49.824;9.562;2023-05-07T01:18:24;17.40;57.20
12426;DHT22;6277;49.824;9.562;2023-05-07T01:20:51;17.40;57.20
12426;DHT22;6277;49.824;9.562;2023-05-07T01:23:17;17.30;57.10
12426;DHT22;6277;49.824;9.562;2023-05-07T01:25:50;17.30;57.20
12426;DHT22;6277;49.824;9.562;2023-05-07T01:28:15;17.30;57.20
12426;DHT22;6277;49.824;9.562;2023-05-07T01:30:44;17.20;57.20
12426;DHT22;6277;49.824;9.562;2023-05-07T01:33:14;17.20;57.30
12426;DHT22;6277;49.824;9.562;2023-05-07T01:35:43;17.20;57.30
12426;DHT22;6277;49.824;9.562;2023-05-07T01:38:10;17.10;57.30
12426;DHT22;6277;49.824;9.562;2023-05-07T01:40:36;17.10;57.20
12426;DHT22;6277;49.824;9.562;2023-05-07T01:43:03;17.10;57.30
12426;DHT22;6277;49.824;9.562;2023-05-07T01:45:30;17.10;57.30
12426;DHT22;6277;49.824;9.562;2023-05-07T01:47:56;17.00;57.40
12426;DHT22;6277;49.824;9.562;2023-05-07T01:50:23;17.00;57.40
12426;DHT22;6277;49.824;9.562;2023-05-07T01:52:50;17.00;57.40
12426;DHT22;6277;49.824;9.562;2023-05-07T01:55:16;17.00;57.60
12426;DHT22;6277;49.824;9.562;2023-05-07T01:57:41;17.00;57.50
12426;DHT22;6277;49.824;9.562;2023-05-07T02:00:08;16.90;57.50
12426;DHT22;6277;49.824;9.562;2023-05-07T02:02:34;16.90;57.60
12426;DHT22;6277;49.824;9.562;2023-05-07T02:05:00;16.90;58.20
12426;DHT22;6277;49.824;9.562;2023-05-07T02:07:27;16.80;57.70
12426;DHT22;6277;49.824;9.562;2023-05-07T02:09:53;16.80;57.70
12426;DHT22;6277;49.824;9.562;2023-05-07T02:12:19;16.80;57.80
12426;DHT22;6277;49.824;9.562;2023-05-07T02:14:44;16.80;57.80
12426;DHT22;6277;49.824;9.562;2023-05-07T02:17:10;16.80;57.80
12426;DHT22;6277;49.824;9.562;2023-05-07T02:19:35;16.80;57.80
12426;DHT22;6277;49.824;9.562;2023-05-07T02:22:01;16.80;57.80
12426;DHT22;6277;49.824;9.562;2023-05-07T02:24:26;16.80;57.90
12426;DHT22;6277;49.824;9.562;2023-05-07T02:26:52;16.80;57.90
12426;DHT22;6277;49.824;9.562;2023-05-07T02:29:17;16.80;57.90
12426;DHT22;6277;49.824;9.562;2023-05-07T02:31:43;16.80;58.00
12426;DHT22;6277;49.824;9.562;2023-05-07T02:34:08;16.80;58.00
12426;DHT22;6277;49.824;9.562;2023-05-07T02:36:34;16.80;58.00
12426;DHT22;6277;49.824;9.562;2023-05-07T02:39:00;16.90;58.10
12426;DHT22;6277;49.824;9.562;2023-05-07T02:41:25;16.90;58.10
12426;DHT22;6277;49.824;9.562;2023-05-07T02:43:51;16.90;58.20
12426;DHT22;6277;49.824;9.562;2023-05-07T02:46:16;16.90;58.20
12426;DHT22;6277;49.824;9.562;2023-05-07T02:48:42;16.90;58.20
12426;DHT22;6277;49.824;9.562;2023-05-07T02:51:08;16.90;58.20
12426;DHT22;6277;49.824;9.562;2023-05-07T02:53:33;16.90;58.20
12426;DHT22;6277;49.824;9.562;2023-05-07T02:56:00;16.90;58.30
12426;DHT22;6277;49.824;9.562;2023-05-07T02:58:26;16.90;58.30
12426;DHT22;6277;49.824;9.562;2023-05-07T03:00:52;16.90;58.20
12426;DHT22;6277;49.824;9.562;2023-05-07T03:03:17;16.80;58.30
12426;DHT22;6277;49.824;9.562;2023-05-07T03:05:43;16.80;58.30
12426;DHT22;6277;49.824;9.562;2023-05-07T03:08:09;16.80;58.40
12426;DHT22;6277;49.824;9.562;2023-05-07T03:10:36;16.80;58.40
12426;DHT22;6277;49.824;9.562;2023-05-07T03:13:01;16.80;58.40
12426;DHT22;6277;49.824;9.562;2023-05-07T03:15:27;16.70;58.30
12426;DHT22;6277;49.824;9.562;2023-05-07T03:17:53;16.70;58.30
12426;DHT22;6277;49.824;9.562;2023-05-07T03:20:18;16.70;58.90
12426;DHT22;6277;49.824;9.562;2023-05-07T03:22:44;16.70;58.50
12426;DHT22;6277;49.824;9.562;2023-05-07T03:25:10;16.60;58.40
12426;DHT22;6277;49.824;9.562;2023-05-07T03:27:35;16.60;58.80
12426;DHT22;6277;49.824;9.562;2023-05-07T03:30:01;16.60;58.60
12426;DHT22;6277;49.824;9.562;2023-05-07T03:32:27;16.50;58.60
12426;DHT22;6277;49.824;9.562;2023-05-07T03:34:52;16.50;58.60
12426;DHT22;6277;49.824;9.562;2023-05-07T03:37:18;16.50;58.70
12426;DHT22;6277;49.824;9.562;2023-05-07T03:39:44;16.50;58.80
12426;DHT22;6277;49.824;9.562;2023-05-07T03:42:10;16.40;58.80
12426;DHT22;6277;49.824;9.562;2023-05-07T03:44:35;16.40;58.90
12426;DHT22;6277;49.824;9.562;2023-05-07T03:47:04;16.40;59.00
12426;DHT22;6277;49.824;9.562;2023-05-07T03:49:29;16.40;59.00
12426;DHT22;6277;49.824;9.562;2023-05-07T03:51:55;16.40;59.10
12426;DHT22;6277;49.824;9.562;2023-05-07T03:54:21;16.40;59.10
12426;DHT22;6277;49.824;9.562;2023-05-07T03:56:46;16.40;59.10
12426;DHT22;6277;49.824;9.562;2023-05-07T03:59:12;16.40;59.20
12426;DHT22;6277;49.824;9.562;2023-05-07T04:01:38;16.40;59.30
12426;DHT22;6277;49.824;9.562;2023-05-07T04:04:04;16.40;59.30
12426;DHT22;6277;49.824;9.562;2023-05-07T04:06:29;16.40;59.30
12426;DHT22;6277;49.824;9.562;2023-05-07T04:08:55;16.40;59.40
12426;DHT22;6277;49.824;9.562;2023-05-07T04:11:21;16.40;59.40
12426;DHT22;6277;49.824;9.562;2023-05-07T04:13:46;16.40;59.50
12426;DHT22;6277;49.824;9.562;2023-05-07T04:16:12;16.40;59.50
12426;DHT22;6277;49.824;9.562;2023-05-07T04:18:38;16.50;59.60
12426;DHT22;6277;49.824;9.562;2023-05-07T04:21:04;16.50;59.60
12426;DHT22;6277;49.824;9.562;2023-05-07T04:23:29;16.40;59.60
12426;DHT22;6277;49.824;9.562;2023-05-07T04:25:55;16.50;59.60
12426;DHT22;6277;49.824;9.562;2023-05-07T04:28:21;16.50;59.70
12426;DHT22;6277;49.824;9.562;2023-05-07T04:30:46;16.40;59.60
12426;DHT22;6277;49.824;9.562;2023-05-07T04:33:14;16.40;59.70
12426;DHT22;6277;49.824;9.562;2023-05-07T04:35:40;16.40;59.80
12426;DHT22;6277;49.824;9.562;2023-05-07T04:38:05;16.50;59.90
12426;DHT22;6277;49.824;9.562;2023-05-07T04:40:31;16.50;59.90
12426;DHT22;6277;49.824;9.562;2023-05-07T04:42:56;16.40;59.90
12426;DHT22;6277;49.824;9.562;2023-05-07T04:45:22;16.50;60.00
12426;DHT22;6277;49.824;9.562;2023-05-07T04:47:47;16.50;60.40
12426;DHT22;6277;49.824;9.562;2023-05-07T04:50:13;16.50;60.10
12426;DHT22;6277;49.824;9.562;2023-05-07T04:52:38;16.60;60.20
12426;DHT22;6277;49.824;9.562;2023-05-07T04:55:04;16.60;60.20
12426;DHT22;6277;49.824;9.562;2023-05-07T04:57:30;16.70;60.30
12426;DHT22;6277;49.824;9.562;2023-05-07T04:59:55;16.70;60.30
12426;DHT22;6277;49.824;9.562;2023-05-07T05:02:21;16.70;60.30
12426;DHT22;6277;49.824;9.562;2023-05-07T05:04:46;16.80;61.00
12426;DHT22;6277;49.824;9.562;2023-05-07T05:07:12;16.80;60.30
12426;DHT22;6277;49.824;9.562;2023-05-07T05:09:38;16.90;60.40
12426;DHT22;6277;49.824;9.562;2023-05-07T05:12:04;17.00;60.40
12426;DHT22;6277;49.824;9.562;2023-05-07T05:14:32;17.00;60.40
12426;DHT22;6277;49.824;9.562;2023-05-07T05:16:58;17.10;60.40
12426;DHT22;6277;49.824;9.562;2023-05-07T05:19:23;17.10;60.30
12426;DHT22;6277;49.824;9.562;2023-05-07T05:21:49;17.10;60.30
12426;DHT22;6277;49.824;9.562;2023-05-07T05:24:14;17.20;60.30
12426;DHT22;6277;49.824;9.562;2023-05-07T05:26:40;17.20;60.20
12426;DHT22;6277;49.824;9.562;2023-05-07T05:29:06;17.20;60.30
12426;DHT22;6277;49.824;9.562;2023-05-07T05:31:31;17.20;60.30
12426;DHT22;6277;49.824;9.562;2023-05-07T05:33:57;17.30;60.30
12426;DHT22;6277;49.824;9.562;2023-05-07T05:36:22;17.30;60.30
12426;DHT22;6277;49.824;9.562;2023-05-07T05:38:48;17.40;60.40
12426;DHT22;6277;49.824;9.562;2023-05-07T05:41:13;17.40;60.40
12426;DHT22;6277;49.824;9.562;2023-05-07T05:43:39;17.50;60.40
12426;DHT22;6277;49.824;9.562;2023-05-07T05:46:05;17.50;60.30
12426;DHT22;6277;49.824;9.562;2023-05-07T05:48:31;17.60;60.40
12426;DHT22;6277;49.824;9.562;2023-05-07T05:50:56;17.70;60.40
12426;DHT22;6277;49.824;9.562;2023-05-07T05:53:22;17.70;60.40
12426;DHT22;6277;49.824;9.562;2023-05-07T05:55:48;17.70;60.30
12426;DHT22;6277;49.824;9.562;2023-05-07T05:58:13;17.90;60.40
12426;DHT22;6277;49.824;9.562;2023-05-07T06:00:40;17.90;60.40
12426;DHT22;6277;49.824;9.562;2023-05-07T06:03:06;18.00;60.40
12426;DHT22;6277;49.824;9.562;2023-05-07T06:05:31;18.10;60.40
12426;DHT22;6277;49.824;9.562;2023-05-07T06:07:57;18.10;60.40
12426;DHT22;6277;49.824;9.562;2023-05-07T06:10:22;18.20;60.30
12426;DHT22;6277;49.824;9.562;2023-05-07T06:12:49;18.30;60.20
12426;DHT22;6277;49.824;9.562;2023-05-07T06:15:14;18.30;60.10
12426;DHT22;6277;49.824;9.562;2023-05-07T06:17:40;18.40;60.20
12426;DHT22;6277;49.824;9.562;2023-05-07T06:20:06;18.50;60.20
12426;DHT22;6277;49.824;9.562;2023-05-07T06:22:32;18.60;60.20
12426;DHT22;6277;49.824;9.562;2023-05-07T06:24:57;18.60;60.00
12426;DHT22;6277;49.824;9.562;2023-05-07T06:27:23;18.70;59.90
12426;DHT22;6277;49.824;9.562;2023-05-07T06:29:48;18.80;59.90
12426;DHT22;6277;49.824;9.562;2023-05-07T06:32:14;18.90;59.90
12426;DHT22;6277;49.824;9.562;2023-05-07T06:34:40;18.90;59.80
12426;DHT22;6277;49.824;9.562;2023-05-07T06:37:06;19.00;59.80
12426;DHT22;6277;49.824;9.562;2023-05-07T06:39:32;19.10;59.80
12426;DHT22;6277;49.824;9.562;2023-05-07T06:41:59;19.20;59.80
12426;DHT22;6277;49.824;9.562;2023-05-07T06:44:25;19.20;59.70
12426;DHT22;6277;49.824;9.562;2023-05-07T06:46:50;19.30;59.60
12426;DHT22;6277;49.824;9.562;2023-05-07T06:49:16;19.40;59.50
12426;DHT22;6277;49.824;9.562;2023-05-07T06:51:41;19.50;59.40
12426;DHT22;6277;49.824;9.562;2023-05-07T06:54:07;19.50;59.30
12426;DHT22;6277;49.824;9.562;2023-05-07T06:56:33;19.70;59.30
12426;DHT22;6277;49.824;9.562;2023-05-07T06:59:00;19.70;59.20
12426;DHT22;6277;49.824;9.562;2023-05-07T07:01:26;19.80;59.20
12426;DHT22;6277;49.824;9.562;2023-05-07T07:03:52;19.80;59.00
12426;DHT22;6277;49.824;9.562;2023-05-07T07:06:17;19.90;58.90
12426;DHT22;6277;49.824;9.562;2023-05-07T07:08:43;20.00;58.90
12426;DHT22;6277;49.824;9.562;2023-05-07T07:11:09;20.10;58.70
12426;DHT22;6277;49.824;9.562;2023-05-07T07:13:35;20.20;58.70
12426;DHT22;6277;49.824;9.562;2023-05-07T07:16:01;20.20;58.70
12426;DHT22;6277;49.824;9.562;2023-05-07T07:18:26;20.30;58.60
12426;DHT22;6277;49.824;9.562;2023-05-07T07:20:52;20.30;58.50
12426;DHT22;6277;49.824;9.562;2023-05-07T07:23:17;20.40;58.40
12426;DHT22;6277;49.824;9.562;2023-05-07T07:25:43;20.50;58.40
12426;DHT22;6277;49.824;9.562;2023-05-07T07:28:08;20.60;58.30
12426;DHT22;6277;49.824;9.562;2023-05-07T07:30:34;20.60;58.10
12426;DHT22;6277;49.824;9.562;2023-05-07T07:32:59;20.70;58.00
12426;DHT22;6277;49.824;9.562;2023-05-07T07:35:29;20.80;57.90
12426;DHT22;6277;49.824;9.562;2023-05-07T07:37:54;20.80;57.80
12426;DHT22;6277;49.824;9.562;2023-05-07T07:40:20;20.90;57.80
12426;DHT22;6277;49.824;9.562;2023-05-07T07:42:46;20.90;57.60
12426;DHT22;6277;49.824;9.562;2023-05-07T07:45:11;20.90;57.50
12426;DHT22;6277;49.824;9.562;2023-05-07T07:47:38;21.00;57.60
12426;DHT22;6277;49.824;9.562;2023-05-07T07:50:04;21.00;57.60
12426;DHT22;6277;49.824;9.562;2023-05-07T07:52:29;21.00;57.60
12426;DHT22;6277;49.824;9.562;2023-05-07T07:54:55;21.10;57.60
12426;DHT22;6277;49.824;9.562;2023-05-07T07:57:20;21.10;57.50
12426;DHT22;6277;49.824;9.562;2023-05-07T07:59:46;21.20;57.50
12426;DHT22;6277;49.824;9.562;2023-05-07T08:02:11;21.20;57.40
12426;DHT22;6277;49.824;9.562;2023-05-07T08:04:37;21.30;57.50
12426;DHT22;6277;49.824;9.562;2023-05-07T08:07:03;21.40;57.40
12426;DHT22;6277;49.824;9.562;2023-05-07T08:09:28;21.50;57.30
12426;DHT22;6277;49.824;9.562;2023-05-07T08:11:54;21.50;57.10
12426;DHT22;6277;49.824;9.562;2023-05-07T08:14:20;21.60;57.00
12426;DHT22;6277;49.824;9.562;2023-05-07T08:16:45;21.60;56.80
12426;DHT22;6277;49.824;9.562;2023-05-07T08:19:11;21.70;56.80
12426;DHT22;6277;49.824;9.562;2023-05-07T08:21:39;21.70;56.70
12426;DHT22;6277;49.824;9.562;2023-05-07T08:24:05;21.80;56.60
12426;DHT22;6277;49.824;9.562;2023-05-07T08:26:30;21.80;56.60
12426;DHT22;6277;49.824;9.562;2023-05-07T08:28:56;21.90;56.60
12426;DHT22;6277;49.824;9.562;2023-05-07T08:31:21;22.00;56.70
12426;DHT22;6277;49.824;9.562;2023-05-07T08:33:50;22.10;56.70
12426;DHT22;6277;49.824;9.562;2023-05-07T08:36:15;22.20;56.60
12426;DHT22;6277;49.824;9.562;2023-05-07T08:38:41;22.30;56.50
12426;DHT22;6277;49.824;9.562;2023-05-07T08:41:10;22.40;56.30
12426;DHT22;6277;49.824;9.562;2023-05-07T08:43:36;22.50;56.00
12426;DHT22;6277;49.824;9.562;2023-05-07T08:46:04;22.50;55.90
12426;DHT22;6277;49.824;9.562;2023-05-07T08:48:32;22.60;55.60
12426;DHT22;6277;49.824;9.562;2023-05-07T08:50:58;22.60;55.50
12426;DHT22;6277;49.824;9.562;2023-05-07T08:53:24;22.60;55.40
12426;DHT22;6277;49.824;9.562;2023-05-07T08:55:51;22.70;55.50
12426;DHT22;6277;49.824;9.562;2023-05-07T08:58:17;22.70;55.40
12426;DHT22;6277;49.824;9.562;2023-05-07T09:00:42;22.70;55.40
12426;DHT22;6277;49.824;9.562;2023-05-07T09:03:08;22.80;55.50
12426;DHT22;6277;49.824;9.562;2023-05-07T09:05:38;22.80;55.20
12426;DHT22;6277;49.824;9.562;2023-05-07T09:08:03;22.80;55.10
12426;DHT22;6277;49.824;9.562;2023-05-07T09:10:33;22.90;55.00
12426;DHT22;6277;49.824;9.562;2023-05-07T09:12:59;22.90;54.80
12426;DHT22;6277;49.824;9.562;2023-05-07T09:15:25;22.90;54.90
12426;DHT22;6277;49.824;9.562;2023-05-07T09:17:51;23.00;55.00
12426;DHT22;6277;49.824;9.562;2023-05-07T09:20:17;23.10;54.80
12426;DHT22;6277;49.824;9.562;2023-05-07T09:22:42;23.10;54.60
12426;DHT22;6277;49.824;9.562;2023-05-07T09:25:09;23.10;54.50
12426;DHT22;6277;49.824;9.562;2023-05-07T09:27:35;23.20;54.70
12426;DHT22;6277;49.824;9.562;2023-05-07T09:30:05;23.30;54.80
12426;DHT22;6277;49.824;9.562;2023-05-07T09:32:35;23.40;54.50
12426;DHT22;6277;49.824;9.562;2023-05-07T09:35:01;23.50;54.40
12426;DHT22;6277;49.824;9.562;2023-05-07T09:37:27;23.60;54.40
12426;DHT22;6277;49.824;9.562;2023-05-07T09:39:54;23.70;54.40
12426;DHT22;6277;49.824;9.562;2023-05-07T09:42:25;23.80;54.20
12426;DHT22;6277;49.824;9.562;2023-05-07T09:44:52;23.90;53.80
12426;DHT22;6277;49.824;9.562;2023-05-07T09:47:24;24.10;54.10
12426;DHT22;6277;49.824;9.562;2023-05-07T09:49:50;24.20;53.40
12426;DHT22;6277;49.824;9.562;2023-05-07T09:52:21;24.20;53.50
12426;DHT22;6277;49.824;9.562;2023-05-07T09:54:47;24.30;53.20
12426;DHT22;6277;49.824;9.562;2023-05-07T09:57:15;24.40;53.80
12426;DHT22;6277;49.824;9.562;2023-05-07T09:59:43;24.40;53.20
12426;DHT22;6277;49.824;9.562;2023-05-07T10:02:09;24.50;53.10
12426;DHT22;6277;49.824;9.562;2023-05-07T10:04:35;24.50;52.90
12426;DHT22;6277;49.824;9.562;2023-05-07T10:07:02;24.60;52.60
12426;DHT22;6277;49.824;9.562;2023-05-07T10:09:29;24.60;53.00
12426;DHT22;6277;49.824;9.562;2023-05-07T10:11:56;24.60;52.20
12426;DHT22;6277;49.824;9.562;2023-05-07T10:14:22;24.50;52.10
12426;DHT22;6277;49.824;9.562;2023-05-07T10:16:48;24.50;52.00
12426;DHT22;6277;49.824;9.562;2023-05-07T10:19:14;24.40;51.80
12426;DHT22;6277;49.824;9.562;2023-05-07T10:21:44;24.30;51.90
12426;DHT22;6277;49.824;9.562;2023-05-07T10:24:20;24.20;52.20
12426;DHT22;6277;49.824;9.562;2023-05-07T10:26:49;24.20;51.80
12426;DHT22;6277;49.824;9.562;2023-05-07T10:29:33;24.10;51.80
12426;DHT22;6277;49.824;9.562;2023-05-07T10:32:19;24.00;51.60
12426;DHT22;6277;49.824;9.562;2023-05-07T10:34:54;23.90;51.70
12426;DHT22;6277;49.824;9.562;2023-05-07T10:37:21;23.80;51.80
12426;DHT22;6277;49.824;9.562;2023-05-07T10:39:47;23.70;51.80
12426;DHT22;6277;49.824;9.562;2023-05-07T10:42:14;23.60;51.80
12426;DHT22;6277;49.824;9.562;2023-05-07T10:44:40;23.60;52.00
12426;DHT22;6277;49.824;9.562;2023-05-07T10:47:10;23.50;52.40
12426;DHT22;6277;49.824;9.562;2023-05-07T10:49:45;23.50;52.10
12426;DHT22;6277;49.824;9.562;2023-05-07T10:52:23;23.50;52.30
12426;DHT22;6277;49.824;9.562;2023-05-07T10:57:40;23.40;51.90
12426;DHT22;6277;49.824;9.562;2023-05-07T11:05:31;23.40;52.10
12426;DHT22;6277;49.824;9.562;2023-05-07T11:07:58;23.40;52.20
12426;DHT22;6277;49.824;9.562;2023-05-07T11:10:50;23.40;52.20
12426;DHT22;6277;49.824;9.562;2023-05-07T11:13:16;23.50;52.00
12426;DHT22;6277;49.824;9.562;2023-05-07T11:15:47;23.60;52.50
12426;DHT22;6277;49.824;9.562;2023-05-07T11:18:14;23.60;52.50
12426;DHT22;6277;49.824;9.562;2023-05-07T11:20:51;23.70;52.70
12426;DHT22;6277;49.824;9.562;2023-05-07T11:26:10;24.20;52.40
12426;DHT22;6277;49.824;9.562;2023-05-07T11:28:43;24.40;52.30
12426;DHT22;6277;49.824;9.562;2023-05-07T11:31:09;24.60;52.10
12426;DHT22;6277;49.824;9.562;2023-05-07T11:33:37;24.80;52.20
12426;DHT22;6277;49.824;9.562;2023-05-07T11:36:03;25.00;52.00
12426;DHT22;6277;49.824;9.562;2023-05-07T11:38:36;25.30;51.70
12426;DHT22;6277;49.824;9.562;2023-05-07T11:41:04;25.40;51.10
12426;DHT22;6277;49.824;9.562;2023-05-07T11:43:31;25.60;51.40
12426;DHT22;6277;49.824;9.562;2023-05-07T11:46:07;25.80;51.40
12426;DHT22;6277;49.824;9.562;2023-05-07T11:48:33;26.10;50.60
12426;DHT22;6277;49.824;9.562;2023-05-07T11:53:33;26.40;50.60
12426;DHT22;6277;49.824;9.562;2023-05-07T11:56:00;26.60;50.10
12426;DHT22;6277;49.824;9.562;2023-05-07T11:58:25;26.70;50.20
12426;DHT22;6277;49.824;9.562;2023-05-07T12:00:54;26.80;50.10
12426;DHT22;6277;49.824;9.562;2023-05-07T12:03:20;26.90;50.20
12426;DHT22;6277;49.824;9.562;2023-05-07T12:05:46;27.00;49.80
12426;DHT22;6277;49.824;9.562;2023-05-07T12:08:16;27.20;49.60
12426;DHT22;6277;49.824;9.562;2023-05-07T12:10:42;27.30;49.20
12426;DHT22;6277;49.824;9.562;2023-05-07T12:13:18;27.40;49.30
12426;DHT22;6277;49.824;9.562;2023-05-07T12:15:44;27.50;49.00
12426;DHT22;6277;49.824;9.562;2023-05-07T12:18:11;27.60;49.00
12426;DHT22;6277;49.824;9.562;2023-05-07T12:20:37;27.70;48.80
12426;DHT22;6277;49.824;9.562;2023-05-07T12:23:03;27.80;48.70
12426;DHT22;6277;49.824;9.562;2023-05-07T12:25:35;27.90;48.00
12426;DHT22;6277;49.824;9.562;2023-05-07T12:28:02;28.00;47.40
12426;DHT22;6277;49.824;9.562;2023-05-07T12:30:31;28.00;47.60
12426;DHT22;6277;49.824;9.562;2023-05-07T12:32:56;28.00;47.30
12426;DHT22;6277;49.824;9.562;2023-05-07T12:35:35;28.00;47.40
12426;DHT22;6277;49.824;9.562;2023-05-07T12:38:01;28.10;46.80
12426;DHT22;6277;49.824;9.562;2023-05-07T12:40:56;28.10;47.10
12426;DHT22;6277;49.824;9.562;2023-05-07T12:43:24;28.10;46.60
12426;DHT22;6277;49.824;9.562;2023-05-07T12:45:51;28.10;46.70
12426;DHT22;6277;49.824;9.562;2023-05-07T12:48:19;28.10;46.80
12426;DHT22;6277;49.824;9.562;2023-05-07T12:50:48;28.20;46.60
12426;DHT22;6277;49.824;9.562;2023-05-07T12:53:14;28.20;46.60
12426;DHT22;6277;49.824;9.562;2023-05-07T12:55:45;28.30;46.70
12426;DHT22;6277;49.824;9.562;2023-05-07T12:58:31;28.40;46.60
12426;DHT22;6277;49.824;9.562;2023-05-07T13:00:59;28.60;46.00
12426;DHT22;6277;49.824;9.562;2023-05-07T13:05:54;28.80;46.20
12426;DHT22;6277;49.824;9.562;2023-05-07T13:08:40;28.90;46.10
12426;DHT22;6277;49.824;9.562;2023-05-07T13:11:09;29.20;45.80
12426;DHT22;6277;49.824;9.562;2023-05-07T13:13:36;29.30;46.00
12426;DHT22;6277;49.824;9.562;2023-05-07T13:16:03;29.50;45.40
12426;DHT22;6277;49.824;9.562;2023-05-07T13:18:32;29.60;44.90
12426;DHT22;6277;49.824;9.562;2023-05-07T13:20:58;29.80;44.30
12426;DHT22;6277;49.824;9.562;2023-05-07T13:23:24;29.90;44.50
12426;DHT22;6277;49.824;9.562;2023-05-07T13:25:50;30.10;44.70
12426;DHT22;6277;49.824;9.562;2023-05-07T13:28:16;30.20;44.10
12426;DHT22;6277;49.824;9.562;2023-05-07T13:30:42;30.40;43.80
12426;DHT22;6277;49.824;9.562;2023-05-07T13:33:08;30.50;43.30
12426;DHT22;6277;49.824;9.562;2023-05-07T13:35:34;30.60;43.10
12426;DHT22;6277;49.824;9.562;2023-05-07T13:38:00;30.80;42.80
12426;DHT22;6277;49.824;9.562;2023-05-07T13:40:25;30.80;42.20
12426;DHT22;6277;49.824;9.562;2023-05-07T13:42:51;30.80;42.00
12426;DHT22;6277;49.824;9.562;2023-05-07T13:45:18;30.90;41.80
12426;DHT22;6277;49.824;9.562;2023-05-07T13:47:44;30.90;41.90
12426;DHT22;6277;49.824;9.562;2023-05-07T13:50:10;31.00;42.00
12426;DHT22;6277;49.824;9.562;2023-05-07T13:52:41;31.00;41.60
12426;DHT22;6277;49.824;9.562;2023-05-07T13:55:09;31.10;41.40
12426;DHT22;6277;49.824;9.562;2023-05-07T13:57:35;31.20;41.30
12426;DHT22;6277;49.824;9.562;2023-05-07T14:00:00;31.30;41.00
12426;DHT22;6277;49.824;9.562;2023-05-07T14:02:26;31.30;40.80
12426;DHT22;6277;49.824;9.562;2023-05-07T14:04:51;31.30;41.00
12426;DHT22;6277;49.824;9.562;2023-05-07T14:07:17;31.30;40.20
12426;DHT22;6277;49.824;9.562;2023-05-07T14:09:42;31.30;40.70
12426;DHT22;6277;49.824;9.562;2023-05-07T14:12:08;31.30;40.50
12426;DHT22;6277;49.824;9.562;2023-05-07T14:14:33;31.20;40.70
12426;DHT22;6277;49.824;9.562;2023-05-07T14:16:59;31.30;40.50
12426;DHT22;6277;49.824;9.562;2023-05-07T14:19:24;31.30;40.20
12426;DHT22;6277;49.824;9.562;2023-05-07T14:21:50;31.40;39.90
12426;DHT22;6277;49.824;9.562;2023-05-07T14:24:15;31.40;39.40
12426;DHT22;6277;49.824;9.562;2023-05-07T14:26:41;31.30;39.20
12426;DHT22;6277;49.824;9.562;2023-05-07T14:29:07;31.20;39.10
12426;DHT22;6277;49.824;9.562;2023-05-07T14:31:32;31.10;38.90
12426;DHT22;6277;49.824;9.562;2023-05-07T14:33:58;31.00;38.90
12426;DHT22;6277;49.824;9.562;2023-05-07T14:36:24;30.80;38.90
12426;DHT22;6277;49.824;9.562;2023-05-07T14:38:52;30.70;39.20
12426;DHT22;6277;49.824;9.562;2023-05-07T14:41:19;30.50;38.60
12426;DHT22;6277;49.824;9.562;2023-05-07T14:43:46;30.40;38.60
12426;DHT22;6277;49.824;9.562;2023-05-07T14:46:16;30.20;38.60
12426;DHT22;6277;49.824;9.562;2023-05-07T14:48:43;30.00;38.70
12426;DHT22;6277;49.824;9.562;2023-05-07T14:51:09;29.80;38.50
12426;DHT22;6277;49.824;9.562;2023-05-07T14:53:35;29.70;38.60
12426;DHT22;6277;49.824;9.562;2023-05-07T14:56:00;29.60;39.00
12426;DHT22;6277;49.824;9.562;2023-05-07T14:58:26;29.50;38.90
12426;DHT22;6277;49.824;9.562;2023-05-07T15:00:51;29.40;39.00
12426;DHT22;6277;49.824;9.562;2023-05-07T15:03:17;29.30;39.20
12426;DHT22;6277;49.824;9.562;2023-05-07T15:05:43;29.10;39.30
12426;DHT22;6277;49.824;9.562;2023-05-07T15:08:08;29.00;39.20
12426;DHT22;6277;49.824;9.562;2023-05-07T15:10:38;28.90;39.40
12426;DHT22;6277;49.824;9.562;2023-05-07T15:13:09;28.80;39.40
12426;DHT22;6277;49.824;9.562;2023-05-07T15:15:34;28.70;39.70
12426;DHT22;6277;49.824;9.562;2023-05-07T15:18:00;28.50;39.70
12426;DHT22;6277;49.824;9.562;2023-05-07T15:20:26;28.40;39.80
12426;DHT22;6277;49.824;9.562;2023-05-07T15:22:52;28.20;39.80
12426;DHT22;6277;49.824;9.562;2023-05-07T15:25:17;28.10;40.10
12426;DHT22;6277;49.824;9.562;2023-05-07T15:27:43;27.90;40.20
12426;DHT22;6277;49.824;9.562;2023-05-07T15:30:09;27.80;40.30
12426;DHT22;6277;49.824;9.562;2023-05-07T15:32:36;27.60;40.30
12426;DHT22;6277;49.824;9.562;2023-05-07T15:35:02;27.50;40.40
12426;DHT22;6277;49.824;9.562;2023-05-07T15:37:30;27.40;40.50
12426;DHT22;6277;49.824;9.562;2023-05-07T15:39:56;27.20;40.60
12426;DHT22;6277;49.824;9.562;2023-05-07T15:42:22;27.10;40.70
12426;DHT22;6277;49.824;9.562;2023-05-07T15:44:47;26.90;40.80
12426;DHT22;6277;49.824;9.562;2023-05-07T15:47:14;26.80;40.90
12426;DHT22;6277;49.824;9.562;2023-05-07T15:49:43;26.70;41.10
12426;DHT22;6277;49.824;9.562;2023-05-07T15:52:08;26.50;41.30
12426;DHT22;6277;49.824;9.562;2023-05-07T15:54:39;26.40;41.40
12426;DHT22;6277;49.824;9.562;2023-05-07T15:57:05;26.30;41.50